Arches Natl Park, Utah
Current Conditions -  °F | °C
As of 7:53 AM on Saturday 01 Nov 2014 (Local Time) from KCNY Reporting Station
Scattered Clouds Scattered Clouds  
Wind Chill: 61°   Ceiling: Unl
Heat Index: 61°   Visibility: 10mi
Dew Point: 41°   Wind: 17mph
Humidity: 48%   Direction: 140°SE
Pressure: 29.85"   Gusts: NA
Location:  38.7°N, 109.75°W
Report Text: KCNY 011353Z AUTO 14015KT 10SM SCT070 16/05 A2985 RMK AO2 SLP070 T01610050
Loading
Personal Weather Stations






























Interactive Weather Map
Tropical Storm Tracking
New forecast layout! Learn more

10-Day Weather Forecast

Advertisements
Track Severe Weather on mobile